CheckWX is a tool to help pilots better visualize weather data.  It is not intended as a substitute for an official pre-flight weather briefing.

14:28:35 UTC

KNLC METAR
Lemoore NAS (Reeves Field) Airport
Lemoore, California, USA
Current

33 mins ago

KNLC 201356Z AUTO 31007KT 10SM CLR 17/12 A2996 RMK AO2 SLP143 T01670117
Observed
Aug-20 @ 13:56 UTC
Wind
  • 310° at 7 KTS
Visibility
10 SM
Flight Rules
VFR
Cloud Levels
  • Clear skies
Temperature
17°C / 63°F
Dewpoint
12°C / 54°F
Humidity
73%
Altimeter
29.96" Hg
Pressure
1014.52 hPa
Previous

2 hours ago

KNLC 201256Z AUTO 31008KT 10SM CLR 17/12 A2994 RMK AO2 SLP137 T01670122
Observed
Aug-20 @ 12:56 UTC
Wind
  • 310° at 8 KTS
Visibility
10 SM
Flight Rules
VFR
Cloud Levels
  • Clear skies
Temperature
17°C / 63°F
Dewpoint
12°C / 54°F
Humidity
73%
Altimeter
29.94" Hg
Pressure
1013.92 hPa
Previous

3 hours ago

KNLC 201156Z AUTO 32010KT 10SM CLR 18/12 A2992 RMK AO2 SLP131 T01780122 10217 20178 53007
Observed
Aug-20 @ 11:56 UTC
Wind
  • 320° at 10 KTS
Visibility
10 SM
Flight Rules
VFR
Cloud Levels
  • Clear skies
Temperature
18°C / 64°F
Dewpoint
12°C / 54°F
Humidity
68%
Altimeter
29.92" Hg
Pressure
1013.22 hPa